Airfield :
LOGIN :

Register | Disclaimer

   EN    FR    IT 

 










Legend :    VFR   Marginal VFR   IFR   Intensive IFR   Very Intensive IFR
Visi :
Ceiling :
>= 8 km
>= 3000ft
5 to 8 km
1000 to 3000 ft
1500m to 5 km
500 to 1000 ft
800 to 1500m
200 to 500 ft
< 800m
< 200 ft
Symbols :   Thunderstorms  Fog  Heavy snow  Heavy precipitations  Wind > 20 kt
SIGMETs :     Misc.  Thunderstorms  Icing  Turbulence  Mountain Waves  Volcanic Ashes







- Airport Elevation : 106 ft
- IATA code : XDA
- Download approach charts


LFBY - Dax Seyresse

CURRENT METAR :
  • 202000Z AUTO 31003KT 280V350 9999 // FEW048 23/18 Q1019

EXPIRED METARs :
  • 201930Z AUTO 30003KT 250V360 9999 // SCT049 23/18 Q1019
  • 201900Z AUTO 30004KT 260V350 9999 // BKN048 23/17 Q1019
  • 201830Z AUTO 31004KT 260V340 9999 // OVC047 24/18 Q1018
  • 201800Z AUTO 30005KT 240V340 9999 // OVC047 24/17 Q1018
  • 201730Z AUTO 27005KT 230V330 9999 // ////// 25/18 Q1018

Expired Forecast.
No reported NOTAMs for that airfield.



MET'MAP, your aeronautical weather chart ! - Copyright ORBIFLY December 2007 - Disclaimer

ORBIFLY MET'MAP TEAM :

Programming & Development : Alexandra Zaïnal
Concept & Development : Baudouin d'Aumeries
Co-Development & Prog : Marc-Olivier Méhu
Technical & hardware support : Manuel Goepfert

Contact : metmap@orbifly.com




SOURCES & CREDITS :

   NOAA